sensor_id;sensor_type;location;lat;lon;timestamp;temperature;humidity
78886;DHT22;68269;52.514;5.722;2023-03-20T00:02:18;9.80;67.60
78886;DHT22;68269;52.514;5.722;2023-03-20T00:04:47;9.80;67.60
78886;DHT22;68269;52.514;5.722;2023-03-20T00:07:19;9.80;67.60
78886;DHT22;68269;52.514;5.722;2023-03-20T00:09:48;9.80;67.60
78886;DHT22;68269;52.514;5.722;2023-03-20T00:12:21;9.80;67.60
78886;DHT22;68269;52.514;5.722;2023-03-20T00:14:51;9.80;67.60
78886;DHT22;68269;52.514;5.722;2023-03-20T00:17:21;9.80;67.60
78886;DHT22;68269;52.514;5.722;2023-03-20T00:19:50;9.80;67.60
78886;DHT22;68269;52.514;5.722;2023-03-20T00:22:22;9.80;67.60
78886;DHT22;68269;52.514;5.722;2023-03-20T00:24:51;9.70;67.60
78886;DHT22;68269;52.514;5.722;2023-03-20T00:27:21;9.70;67.70
78886;DHT22;68269;52.514;5.722;2023-03-20T00:29:50;9.70;67.60
78886;DHT22;68269;52.514;5.722;2023-03-20T00:32:19;9.70;67.70
78886;DHT22;68269;52.514;5.722;2023-03-20T00:34:49;9.70;67.60
78886;DHT22;68269;52.514;5.722;2023-03-20T00:37:22;9.70;67.70
78886;DHT22;68269;52.514;5.722;2023-03-20T00:39:53;9.70;67.60
78886;DHT22;68269;52.514;5.722;2023-03-20T00:42:22;9.70;67.70
78886;DHT22;68269;52.514;5.722;2023-03-20T00:44:53;9.60;67.70
78886;DHT22;68269;52.514;5.722;2023-03-20T00:47:25;9.60;67.70
78886;DHT22;68269;52.514;5.722;2023-03-20T00:49:55;9.60;67.70
78886;DHT22;68269;52.514;5.722;2023-03-20T00:52:27;9.60;67.70
78886;DHT22;68269;52.514;5.722;2023-03-20T00:54:57;9.70;67.70
78886;DHT22;68269;52.514;5.722;2023-03-20T00:57:28;9.70;67.60
78886;DHT22;68269;52.514;5.722;2023-03-20T00:59:59;9.70;67.60
78886;DHT22;68269;52.514;5.722;2023-03-20T01:02:30;9.70;67.60
78886;DHT22;68269;52.514;5.722;2023-03-20T01:05:00;9.70;67.60
78886;DHT22;68269;52.514;5.722;2023-03-20T01:07:33;9.70;67.60
78886;DHT22;68269;52.514;5.722;2023-03-20T01:10:03;9.70;67.60
78886;DHT22;68269;52.514;5.722;2023-03-20T01:12:34;9.70;67.60
78886;DHT22;68269;52.514;5.722;2023-03-20T01:15:19;9.70;67.60
78886;DHT22;68269;52.514;5.722;2023-03-20T01:17:49;9.70;67.60
78886;DHT22;68269;52.514;5.722;2023-03-20T01:20:22;9.60;67.60
78886;DHT22;68269;52.514;5.722;2023-03-20T01:22:55;9.60;67.70
78886;DHT22;68269;52.514;5.722;2023-03-20T01:25:25;9.60;67.70
78886;DHT22;68269;52.514;5.722;2023-03-20T01:27:54;9.60;67.60
78886;DHT22;68269;52.514;5.722;2023-03-20T01:30:25;9.60;67.60
78886;DHT22;68269;52.514;5.722;2023-03-20T01:32:59;9.60;67.60
78886;DHT22;68269;52.514;5.722;2023-03-20T01:35:30;9.60;67.60
78886;DHT22;68269;52.514;5.722;2023-03-20T01:38:08;9.60;67.60
78886;DHT22;68269;52.514;5.722;2023-03-20T01:40:42;9.60;67.50
78886;DHT22;68269;52.514;5.722;2023-03-20T01:43:16;9.60;67.50
78886;DHT22;68269;52.514;5.722;2023-03-20T01:45:56;9.60;67.50
78886;DHT22;68269;52.514;5.722;2023-03-20T01:48:53;9.60;67.50
78886;DHT22;68269;52.514;5.722;2023-03-20T01:51:26;9.60;67.50
78886;DHT22;68269;52.514;5.722;2023-03-20T01:54:06;9.70;67.50
78886;DHT22;68269;52.514;5.722;2023-03-20T01:56:51;9.70;67.40
78886;DHT22;68269;52.514;5.722;2023-03-20T01:59:23;9.70;67.40
78886;DHT22;68269;52.514;5.722;2023-03-20T02:01:55;9.70;67.40
78886;DHT22;68269;52.514;5.722;2023-03-20T02:04:30;9.70;67.40
78886;DHT22;68269;52.514;5.722;2023-03-20T02:07:09;9.70;67.30
78886;DHT22;68269;52.514;5.722;2023-03-20T02:10:07;9.70;67.30
78886;DHT22;68269;52.514;5.722;2023-03-20T02:12:48;9.70;67.30
78886;DHT22;68269;52.514;5.722;2023-03-20T02:15:26;9.70;67.20
78886;DHT22;68269;52.514;5.722;2023-03-20T02:18:18;9.70;67.20
78886;DHT22;68269;52.514;5.722;2023-03-20T02:21:02;9.80;67.20
78886;DHT22;68269;52.514;5.722;2023-03-20T02:26:48;9.70;67.10
78886;DHT22;68269;52.514;5.722;2023-03-20T02:29:46;9.80;67.10
78886;DHT22;68269;52.514;5.722;2023-03-20T02:41:33;9.70;67.00
78886;DHT22;68269;52.514;5.722;2023-03-20T02:44:07;9.70;67.00
78886;DHT22;68269;52.514;5.722;2023-03-20T02:46:46;9.70;67.00
78886;DHT22;68269;52.514;5.722;2023-03-20T02:49:34;9.70;67.00
78886;DHT22;68269;52.514;5.722;2023-03-20T02:52:14;9.70;67.00
78886;DHT22;68269;52.514;5.722;2023-03-20T02:54:50;9.70;67.00
78886;DHT22;68269;52.514;5.722;2023-03-20T02:57:31;9.70;67.00
78886;DHT22;68269;52.514;5.722;2023-03-20T03:00:10;9.70;67.00
78886;DHT22;68269;52.514;5.722;2023-03-20T03:02:47;9.70;67.00
78886;DHT22;68269;52.514;5.722;2023-03-20T03:05:21;9.70;67.00
78886;DHT22;68269;52.514;5.722;2023-03-20T03:07:54;9.70;67.00
78886;DHT22;68269;52.514;5.722;2023-03-20T03:10:25;9.70;67.00
78886;DHT22;68269;52.514;5.722;2023-03-20T03:12:59;9.70;67.00
78886;DHT22;68269;52.514;5.722;2023-03-20T03:15:33;9.70;66.90
78886;DHT22;68269;52.514;5.722;2023-03-20T03:18:04;9.70;66.90
78886;DHT22;68269;52.514;5.722;2023-03-20T03:20:37;9.70;66.90
78886;DHT22;68269;52.514;5.722;2023-03-20T03:23:17;9.60;66.90
78886;DHT22;68269;52.514;5.722;2023-03-20T03:25:47;9.60;66.90
78886;DHT22;68269;52.514;5.722;2023-03-20T03:28:27;9.60;66.90
78886;DHT22;68269;52.514;5.722;2023-03-20T03:31:04;9.60;67.00
78886;DHT22;68269;52.514;5.722;2023-03-20T03:33:38;9.60;66.90
78886;DHT22;68269;52.514;5.722;2023-03-20T03:36:12;9.60;66.90
78886;DHT22;68269;52.514;5.722;2023-03-20T03:38:54;9.60;66.90
78886;DHT22;68269;52.514;5.722;2023-03-20T03:41:29;9.60;66.90
78886;DHT22;68269;52.514;5.722;2023-03-20T03:44:07;9.60;66.90
78886;DHT22;68269;52.514;5.722;2023-03-20T03:46:43;9.60;66.80
78886;DHT22;68269;52.514;5.722;2023-03-20T03:49:17;9.60;66.80
78886;DHT22;68269;52.514;5.722;2023-03-20T03:51:52;9.50;66.80
78886;DHT22;68269;52.514;5.722;2023-03-20T03:54:25;9.60;66.80
78886;DHT22;68269;52.514;5.722;2023-03-20T03:57:30;9.50;66.80
78886;DHT22;68269;52.514;5.722;2023-03-20T04:00:04;9.50;66.70
78886;DHT22;68269;52.514;5.722;2023-03-20T04:02:41;9.50;66.70
78886;DHT22;68269;52.514;5.722;2023-03-20T04:05:12;9.40;66.70
78886;DHT22;68269;52.514;5.722;2023-03-20T04:07:44;9.40;66.60
78886;DHT22;68269;52.514;5.722;2023-03-20T04:10:14;9.40;66.70
78886;DHT22;68269;52.514;5.722;2023-03-20T04:12:44;9.50;66.70
78886;DHT22;68269;52.514;5.722;2023-03-20T04:15:17;9.50;66.60
78886;DHT22;68269;52.514;5.722;2023-03-20T04:17:47;9.40;66.60
78886;DHT22;68269;52.514;5.722;2023-03-20T04:20:17;9.50;66.60
78886;DHT22;68269;52.514;5.722;2023-03-20T04:22:47;9.50;66.50
78886;DHT22;68269;52.514;5.722;2023-03-20T04:25:19;9.40;66.50
78886;DHT22;68269;52.514;5.722;2023-03-20T04:27:51;9.40;66.60
78886;DHT22;68269;52.514;5.722;2023-03-20T04:30:35;9.40;66.60
78886;DHT22;68269;52.514;5.722;2023-03-20T04:33:21;9.40;66.60
78886;DHT22;68269;52.514;5.722;2023-03-20T04:36:21;9.40;66.50
78886;DHT22;68269;52.514;5.722;2023-03-20T04:38:52;9.40;66.50
78886;DHT22;68269;52.514;5.722;2023-03-20T04:41:21;9.40;66.50
78886;DHT22;68269;52.514;5.722;2023-03-20T04:43:54;9.40;66.50
78886;DHT22;68269;52.514;5.722;2023-03-20T04:46:26;9.40;66.50
78886;DHT22;68269;52.514;5.722;2023-03-20T04:48:56;9.40;66.50
78886;DHT22;68269;52.514;5.722;2023-03-20T04:51:28;9.30;66.50
78886;DHT22;68269;52.514;5.722;2023-03-20T04:53:58;9.30;66.50
78886;DHT22;68269;52.514;5.722;2023-03-20T04:56:27;9.30;66.50
78886;DHT22;68269;52.514;5.722;2023-03-20T04:59:10;9.20;66.50
78886;DHT22;68269;52.514;5.722;2023-03-20T05:01:42;9.20;66.50
78886;DHT22;68269;52.514;5.722;2023-03-20T05:04:11;9.20;66.40
78886;DHT22;68269;52.514;5.722;2023-03-20T05:06:41;9.20;66.40
78886;DHT22;68269;52.514;5.722;2023-03-20T05:09:15;9.20;66.40
78886;DHT22;68269;52.514;5.722;2023-03-20T05:11:44;9.20;66.40
78886;DHT22;68269;52.514;5.722;2023-03-20T05:14:33;9.20;66.40
78886;DHT22;68269;52.514;5.722;2023-03-20T05:17:43;9.20;66.30
78886;DHT22;68269;52.514;5.722;2023-03-20T05:20:25;9.20;66.30
78886;DHT22;68269;52.514;5.722;2023-03-20T05:23:02;9.10;66.40
78886;DHT22;68269;52.514;5.722;2023-03-20T05:25:52;9.10;66.40
78886;DHT22;68269;52.514;5.722;2023-03-20T05:28:40;9.00;66.30
78886;DHT22;68269;52.514;5.722;2023-03-20T05:31:35;9.00;66.40
78886;DHT22;68269;52.514;5.722;2023-03-20T05:34:16;9.00;66.30
78886;DHT22;68269;52.514;5.722;2023-03-20T05:36:56;9.00;66.30
78886;DHT22;68269;52.514;5.722;2023-03-20T05:39:48;9.00;66.20
78886;DHT22;68269;52.514;5.722;2023-03-20T05:42:40;9.00;66.20
78886;DHT22;68269;52.514;5.722;2023-03-20T05:45:28;9.00;66.20
78886;DHT22;68269;52.514;5.722;2023-03-20T05:48:13;9.00;66.20
78886;DHT22;68269;52.514;5.722;2023-03-20T05:50:57;9.00;66.20
78886;DHT22;68269;52.514;5.722;2023-03-20T05:53:44;9.00;66.20
78886;DHT22;68269;52.514;5.722;2023-03-20T05:56:36;9.00;66.20
78886;DHT22;68269;52.514;5.722;2023-03-20T05:59:28;9.00;66.20
78886;DHT22;68269;52.514;5.722;2023-03-20T06:02:15;9.00;66.20
78886;DHT22;68269;52.514;5.722;2023-03-20T06:04:54;9.00;66.20
78886;DHT22;68269;52.514;5.722;2023-03-20T06:07:31;9.00;66.20
78886;DHT22;68269;52.514;5.722;2023-03-20T06:10:06;9.00;66.20
78886;DHT22;68269;52.514;5.722;2023-03-20T06:12:36;8.90;66.20
78886;DHT22;68269;52.514;5.722;2023-03-20T06:15:07;8.90;66.20
78886;DHT22;68269;52.514;5.722;2023-03-20T06:17:40;9.00;66.10
78886;DHT22;68269;52.514;5.722;2023-03-20T06:20:12;9.00;66.20
78886;DHT22;68269;52.514;5.722;2023-03-20T06:22:45;9.00;66.10
78886;DHT22;68269;52.514;5.722;2023-03-20T06:25:15;9.00;66.20
78886;DHT22;68269;52.514;5.722;2023-03-20T06:27:45;9.00;66.10
78886;DHT22;68269;52.514;5.722;2023-03-20T06:30:16;9.00;66.10
78886;DHT22;68269;52.514;5.722;2023-03-20T06:32:46;9.00;66.10
78886;DHT22;68269;52.514;5.722;2023-03-20T06:35:17;9.00;66.10
78886;DHT22;68269;52.514;5.722;2023-03-20T06:37:51;9.00;66.10
78886;DHT22;68269;52.514;5.722;2023-03-20T06:40:24;9.00;66.10
78886;DHT22;68269;52.514;5.722;2023-03-20T06:42:54;9.00;66.10
78886;DHT22;68269;52.514;5.722;2023-03-20T06:45:32;9.00;66.10
78886;DHT22;68269;52.514;5.722;2023-03-20T06:48:05;9.00;66.10
78886;DHT22;68269;52.514;5.722;2023-03-20T06:50:35;9.00;66.00
78886;DHT22;68269;52.514;5.722;2023-03-20T06:53:07;8.90;66.00
78886;DHT22;68269;52.514;5.722;2023-03-20T06:55:42;9.00;66.00
78886;DHT22;68269;52.514;5.722;2023-03-20T06:58:11;9.00;66.00
78886;DHT22;68269;52.514;5.722;2023-03-20T07:00:40;9.00;66.00
78886;DHT22;68269;52.514;5.722;2023-03-20T07:03:10;9.00;65.90
78886;DHT22;68269;52.514;5.722;2023-03-20T07:05:42;9.00;65.90
78886;DHT22;68269;52.514;5.722;2023-03-20T07:08:14;9.00;65.90
78886;DHT22;68269;52.514;5.722;2023-03-20T07:10:43;9.00;65.90
78886;DHT22;68269;52.514;5.722;2023-03-20T07:13:14;9.00;65.90
78886;DHT22;68269;52.514;5.722;2023-03-20T07:15:44;9.00;65.90
78886;DHT22;68269;52.514;5.722;2023-03-20T07:18:18;9.00;65.80
78886;DHT22;68269;52.514;5.722;2023-03-20T07:20:50;9.00;65.80
78886;DHT22;68269;52.514;5.722;2023-03-20T07:23:22;9.00;65.90
78886;DHT22;68269;52.514;5.722;2023-03-20T07:25:52;9.10;65.90
78886;DHT22;68269;52.514;5.722;2023-03-20T07:28:21;9.00;65.80
78886;DHT22;68269;52.514;5.722;2023-03-20T07:31:00;9.10;65.80
78886;DHT22;68269;52.514;5.722;2023-03-20T07:33:31;9.00;65.80
78886;DHT22;68269;52.514;5.722;2023-03-20T07:36:00;9.00;65.80
78886;DHT22;68269;52.514;5.722;2023-03-20T07:38:32;9.00;65.80
78886;DHT22;68269;52.514;5.722;2023-03-20T07:41:08;9.00;65.70
78886;DHT22;68269;52.514;5.722;2023-03-20T07:43:42;9.00;65.80
78886;DHT22;68269;52.514;5.722;2023-03-20T07:46:31;9.00;65.70
78886;DHT22;68269;52.514;5.722;2023-03-20T07:49:01;9.00;65.70
78886;DHT22;68269;52.514;5.722;2023-03-20T07:51:31;9.10;65.60
78886;DHT22;68269;52.514;5.722;2023-03-20T07:54:05;9.10;65.60
78886;DHT22;68269;52.514;5.722;2023-03-20T07:56:36;9.20;65.60
78886;DHT22;68269;52.514;5.722;2023-03-20T07:59:05;9.10;65.60
78886;DHT22;68269;52.514;5.722;2023-03-20T08:01:35;9.10;65.70
78886;DHT22;68269;52.514;5.722;2023-03-20T08:04:04;9.10;65.70
78886;DHT22;68269;52.514;5.722;2023-03-20T08:06:33;9.10;65.80
78886;DHT22;68269;52.514;5.722;2023-03-20T08:09:07;9.20;65.80
78886;DHT22;68269;52.514;5.722;2023-03-20T08:11:36;9.20;65.80
78886;DHT22;68269;52.514;5.722;2023-03-20T08:14:05;9.20;65.80
78886;DHT22;68269;52.514;5.722;2023-03-20T08:16:35;9.10;65.80
78886;DHT22;68269;52.514;5.722;2023-03-20T08:19:04;9.20;65.90
78886;DHT22;68269;52.514;5.722;2023-03-20T08:21:33;9.20;65.90
78886;DHT22;68269;52.514;5.722;2023-03-20T08:24:03;9.20;65.90
78886;DHT22;68269;52.514;5.722;2023-03-20T08:26:35;9.10;65.90
78886;DHT22;68269;52.514;5.722;2023-03-20T08:29:05;9.00;66.00
78886;DHT22;68269;52.514;5.722;2023-03-20T08:31:34;9.00;66.00
78886;DHT22;68269;52.514;5.722;2023-03-20T08:34:03;9.00;66.10
78886;DHT22;68269;52.514;5.722;2023-03-20T08:36:33;9.00;66.10
78886;DHT22;68269;52.514;5.722;2023-03-20T08:39:03;9.00;66.10
78886;DHT22;68269;52.514;5.722;2023-03-20T08:41:35;9.00;66.10
78886;DHT22;68269;52.514;5.722;2023-03-20T08:44:05;9.00;66.10
78886;DHT22;68269;52.514;5.722;2023-03-20T08:46:34;9.00;66.10
78886;DHT22;68269;52.514;5.722;2023-03-20T08:49:05;8.90;66.10
78886;DHT22;68269;52.514;5.722;2023-03-20T08:51:34;8.90;66.00
78886;DHT22;68269;52.514;5.722;2023-03-20T08:54:04;8.90;66.10
78886;DHT22;68269;52.514;5.722;2023-03-20T08:56:36;8.90;66.10
78886;DHT22;68269;52.514;5.722;2023-03-20T08:59:05;8.90;66.20
78886;DHT22;68269;52.514;5.722;2023-03-20T09:01:35;8.90;66.20
78886;DHT22;68269;52.514;5.722;2023-03-20T09:04:04;8.90;66.10
78886;DHT22;68269;52.514;5.722;2023-03-20T09:06:35;8.90;66.10
78886;DHT22;68269;52.514;5.722;2023-03-20T09:09:05;8.90;66.20
78886;DHT22;68269;52.514;5.722;2023-03-20T09:11:37;8.80;66.20
78886;DHT22;68269;52.514;5.722;2023-03-20T09:14:06;8.80;66.20
78886;DHT22;68269;52.514;5.722;2023-03-20T09:16:35;8.90;66.20
78886;DHT22;68269;52.514;5.722;2023-03-20T09:19:05;8.90;66.20
78886;DHT22;68269;52.514;5.722;2023-03-20T09:21:34;8.90;66.20
78886;DHT22;68269;52.514;5.722;2023-03-20T09:24:05;9.00;66.20
78886;DHT22;68269;52.514;5.722;2023-03-20T09:26:37;9.00;66.20
78886;DHT22;68269;52.514;5.722;2023-03-20T09:29:06;9.00;66.20
78886;DHT22;68269;52.514;5.722;2023-03-20T09:31:35;9.00;66.20
78886;DHT22;68269;52.514;5.722;2023-03-20T09:34:05;9.00;66.20
78886;DHT22;68269;52.514;5.722;2023-03-20T09:36:34;9.00;66.20
78886;DHT22;68269;52.514;5.722;2023-03-20T09:39:04;9.00;66.30
78886;DHT22;68269;52.514;5.722;2023-03-20T09:41:36;9.00;66.30
78886;DHT22;68269;52.514;5.722;2023-03-20T09:44:16;9.00;66.30
78886;DHT22;68269;52.514;5.722;2023-03-20T09:46:59;9.00;66.30
78886;DHT22;68269;52.514;5.722;2023-03-20T09:49:39;9.00;66.20
78886;DHT22;68269;52.514;5.722;2023-03-20T09:52:19;9.00;66.30
78886;DHT22;68269;52.514;5.722;2023-03-20T09:54:52;9.00;66.30
78886;DHT22;68269;52.514;5.722;2023-03-20T09:57:27;9.00;66.20
78886;DHT22;68269;52.514;5.722;2023-03-20T10:00:02;9.00;66.30
78886;DHT22;68269;52.514;5.722;2023-03-20T10:02:46;9.00;66.30
78886;DHT22;68269;52.514;5.722;2023-03-20T10:05:22;9.00;66.30
78886;DHT22;68269;52.514;5.722;2023-03-20T10:07:54;9.00;66.30
78886;DHT22;68269;52.514;5.722;2023-03-20T10:10:29;9.00;66.30
78886;DHT22;68269;52.514;5.722;2023-03-20T10:13:19;9.00;66.30
78886;DHT22;68269;52.514;5.722;2023-03-20T10:15:54;9.00;66.40
78886;DHT22;68269;52.514;5.722;2023-03-20T10:18:26;9.10;66.30
78886;DHT22;68269;52.514;5.722;2023-03-20T10:21:00;9.10;66.30
78886;DHT22;68269;52.514;5.722;2023-03-20T10:23:35;9.20;66.20
78886;DHT22;68269;52.514;5.722;2023-03-20T10:26:10;9.20;66.20
78886;DHT22;68269;52.514;5.722;2023-03-20T10:28:46;9.30;66.20
78886;DHT22;68269;52.514;5.722;2023-03-20T10:31:28;9.40;66.20
78886;DHT22;68269;52.514;5.722;2023-03-20T10:34:13;9.40;66.20
78886;DHT22;68269;52.514;5.722;2023-03-20T10:36:53;9.40;66.20
78886;DHT22;68269;52.514;5.722;2023-03-20T10:39:36;9.40;66.20
78886;DHT22;68269;52.514;5.722;2023-03-20T10:42:15;9.40;66.20
78886;DHT22;68269;52.514;5.722;2023-03-20T10:44:54;9.40;66.20
78886;DHT22;68269;52.514;5.722;2023-03-20T10:47:27;9.40;66.20
78886;DHT22;68269;52.514;5.722;2023-03-20T10:50:01;9.40;66.20
78886;DHT22;68269;52.514;5.722;2023-03-20T10:52:37;9.40;66.30
78886;DHT22;68269;52.514;5.722;2023-03-20T10:55:11;9.40;66.20
78886;DHT22;68269;52.514;5.722;2023-03-20T10:57:46;9.40;66.30
78886;DHT22;68269;52.514;5.722;2023-03-20T11:00:21;9.40;66.20
78886;DHT22;68269;52.514;5.722;2023-03-20T11:02:51;9.40;66.20
78886;DHT22;68269;52.514;5.722;2023-03-20T11:05:24;9.50;66.20
78886;DHT22;68269;52.514;5.722;2023-03-20T11:08:02;9.50;66.20
78886;DHT22;68269;52.514;5.722;2023-03-20T11:10:33;9.50;66.20
78886;DHT22;68269;52.514;5.722;2023-03-20T11:13:13;9.50;66.20
78886;DHT22;68269;52.514;5.722;2023-03-20T11:15:47;9.60;66.20
78886;DHT22;68269;52.514;5.722;2023-03-20T11:18:16;9.50;66.20
78886;DHT22;68269;52.514;5.722;2023-03-20T11:20:49;9.50;66.30
78886;DHT22;68269;52.514;5.722;2023-03-20T11:23:24;9.50;66.40
78886;DHT22;68269;52.514;5.722;2023-03-20T11:25:57;9.50;66.40
78886;DHT22;68269;52.514;5.722;2023-03-20T11:28:32;9.50;66.50
78886;DHT22;68269;52.514;5.722;2023-03-20T11:31:06;9.40;66.50
78886;DHT22;68269;52.514;5.722;2023-03-20T11:33:44;9.40;66.50
78886;DHT22;68269;52.514;5.722;2023-03-20T11:36:22;9.40;66.60
78886;DHT22;68269;52.514;5.722;2023-03-20T11:38:53;9.40;66.60
78886;DHT22;68269;52.514;5.722;2023-03-20T11:41:27;9.40;66.60
78886;DHT22;68269;52.514;5.722;2023-03-20T11:43:56;9.40;66.60
78886;DHT22;68269;52.514;5.722;2023-03-20T11:46:28;9.30;66.70
78886;DHT22;68269;52.514;5.722;2023-03-20T11:49:04;9.20;66.80
78886;DHT22;68269;52.514;5.722;2023-03-20T11:51:35;9.20;66.90
78886;DHT22;68269;52.514;5.722;2023-03-20T11:54:12;9.20;66.90
78886;DHT22;68269;52.514;5.722;2023-03-20T11:56:51;9.20;66.90
78886;DHT22;68269;52.514;5.722;2023-03-20T11:59:21;9.20;67.00
78886;DHT22;68269;52.514;5.722;2023-03-20T12:01:55;9.20;66.90
78886;DHT22;68269;52.514;5.722;2023-03-20T12:04:28;9.20;67.00
78886;DHT22;68269;52.514;5.722;2023-03-20T12:07:02;9.20;67.10
78886;DHT22;68269;52.514;5.722;2023-03-20T12:09:41;9.20;67.10
78886;DHT22;68269;52.514;5.722;2023-03-20T12:12:17;9.20;67.20
78886;DHT22;68269;52.514;5.722;2023-03-20T12:14:53;9.20;67.20
78886;DHT22;68269;52.514;5.722;2023-03-20T12:17:33;9.20;67.20
78886;DHT22;68269;52.514;5.722;2023-03-20T12:20:11;9.20;67.20
78886;DHT22;68269;52.514;5.722;2023-03-20T12:22:48;9.20;67.30
78886;DHT22;68269;52.514;5.722;2023-03-20T12:25:21;9.20;67.20
78886;DHT22;68269;52.514;5.722;2023-03-20T12:28:01;9.20;67.30
78886;DHT22;68269;52.514;5.722;2023-03-20T12:30:46;9.20;67.40
78886;DHT22;68269;52.514;5.722;2023-03-20T12:33:29;9.20;67.40
78886;DHT22;68269;52.514;5.722;2023-03-20T12:36:01;9.10;67.50
78886;DHT22;68269;52.514;5.722;2023-03-20T12:38:32;9.10;67.50
78886;DHT22;68269;52.514;5.722;2023-03-20T12:41:13;9.10;67.50
78886;DHT22;68269;52.514;5.722;2023-03-20T12:44:00;9.10;67.50
78886;DHT22;68269;52.514;5.722;2023-03-20T12:46:38;9.10;67.60
78886;DHT22;68269;52.514;5.722;2023-03-20T12:49:23;9.20;67.60
78886;DHT22;68269;52.514;5.722;2023-03-20T12:52:04;9.20;67.60
78886;DHT22;68269;52.514;5.722;2023-03-20T12:54:56;9.20;67.60
78886;DHT22;68269;52.514;5.722;2023-03-20T12:57:38;9.20;67.60
78886;DHT22;68269;52.514;5.722;2023-03-20T13:00:17;9.20;67.70
78886;DHT22;68269;52.514;5.722;2023-03-20T13:02:55;9.20;67.70
78886;DHT22;68269;52.514;5.722;2023-03-20T13:05:35;9.20;67.80
78886;DHT22;68269;52.514;5.722;2023-03-20T13:11:03;9.20;67.80
78886;DHT22;68269;52.514;5.722;2023-03-20T13:13:42;9.20;67.90
78886;DHT22;68269;52.514;5.722;2023-03-20T13:16:20;9.20;67.90
78886;DHT22;68269;52.514;5.722;2023-03-20T13:18:57;9.20;67.90
78886;DHT22;68269;52.514;5.722;2023-03-20T13:21:37;9.20;68.00
78886;DHT22;68269;52.514;5.722;2023-03-20T13:24:21;9.20;68.00
78886;DHT22;68269;52.514;5.722;2023-03-20T13:27:01;9.20;68.10
78886;DHT22;68269;52.514;5.722;2023-03-20T13:29:43;9.20;68.10
78886;DHT22;68269;52.514;5.722;2023-03-20T13:32:23;9.20;68.20
78886;DHT22;68269;52.514;5.722;2023-03-20T13:35:05;9.20;68.20
78886;DHT22;68269;52.514;5.722;2023-03-20T13:37:43;9.20;68.30
78886;DHT22;68269;52.514;5.722;2023-03-20T13:40:20;9.20;68.30
78886;DHT22;68269;52.514;5.722;2023-03-20T13:42:54;9.20;68.30
78886;DHT22;68269;52.514;5.722;2023-03-20T13:45:30;9.20;68.30
78886;DHT22;68269;52.514;5.722;2023-03-20T13:48:08;9.20;68.40
78886;DHT22;68269;52.514;5.722;2023-03-20T13:50:44;9.20;68.40
78886;DHT22;68269;52.514;5.722;2023-03-20T13:53:29;9.20;68.40
78886;DHT22;68269;52.514;5.722;2023-03-20T13:56:04;9.20;68.50
78886;DHT22;68269;52.514;5.722;2023-03-20T13:58:54;9.30;68.50
78886;DHT22;68269;52.514;5.722;2023-03-20T14:01:34;9.20;68.40
78886;DHT22;68269;52.514;5.722;2023-03-20T14:04:08;9.20;68.50
78886;DHT22;68269;52.514;5.722;2023-03-20T14:06:48;9.30;68.40
78886;DHT22;68269;52.514;5.722;2023-03-20T14:09:31;9.30;68.50
78886;DHT22;68269;52.514;5.722;2023-03-20T14:12:04;9.20;68.50
78886;DHT22;68269;52.514;5.722;2023-03-20T14:14:38;9.20;68.60
78886;DHT22;68269;52.514;5.722;2023-03-20T14:17:15;9.20;68.60
78886;DHT22;68269;52.514;5.722;2023-03-20T14:19:47;9.20;68.60
78886;DHT22;68269;52.514;5.722;2023-03-20T14:22:19;9.20;68.60
78886;DHT22;68269;52.514;5.722;2023-03-20T14:24:55;9.20;68.70
78886;DHT22;68269;52.514;5.722;2023-03-20T14:27:27;9.20;68.70
78886;DHT22;68269;52.514;5.722;2023-03-20T14:29:56;9.20;68.70
78886;DHT22;68269;52.514;5.722;2023-03-20T14:32:58;9.20;68.70
78886;DHT22;68269;52.514;5.722;2023-03-20T14:35:28;9.20;68.80
78886;DHT22;68269;52.514;5.722;2023-03-20T14:38:19;9.20;68.80
78886;DHT22;68269;52.514;5.722;2023-03-20T14:40:56;9.20;68.90
78886;DHT22;68269;52.514;5.722;2023-03-20T14:43:40;9.20;68.90
78886;DHT22;68269;52.514;5.722;2023-03-20T14:46:19;9.20;68.90
78886;DHT22;68269;52.514;5.722;2023-03-20T14:48:55;9.20;69.00
78886;DHT22;68269;52.514;5.722;2023-03-20T14:51:30;9.20;68.90
78886;DHT22;68269;52.514;5.722;2023-03-20T14:54:27;9.20;69.00
78886;DHT22;68269;52.514;5.722;2023-03-20T14:57:08;9.20;69.00
78886;DHT22;68269;52.514;5.722;2023-03-20T14:59:37;9.20;69.10
78886;DHT22;68269;52.514;5.722;2023-03-20T15:02:23;9.10;69.10
78886;DHT22;68269;52.514;5.722;2023-03-20T15:04:56;9.10;69.10
78886;DHT22;68269;52.514;5.722;2023-03-20T15:07:27;9.10;69.20
78886;DHT22;68269;52.514;5.722;2023-03-20T15:10:00;9.00;69.20
78886;DHT22;68269;52.514;5.722;2023-03-20T15:12:34;9.10;69.30
78886;DHT22;68269;52.514;5.722;2023-03-20T15:15:05;9.10;69.30
78886;DHT22;68269;52.514;5.722;2023-03-20T15:17:37;9.10;69.30
78886;DHT22;68269;52.514;5.722;2023-03-20T15:20:14;9.10;69.30
78886;DHT22;68269;52.514;5.722;2023-03-20T15:22:48;9.20;69.40
78886;DHT22;68269;52.514;5.722;2023-03-20T15:25:17;9.20;69.40
78886;DHT22;68269;52.514;5.722;2023-03-20T15:27:48;9.20;69.40
78886;DHT22;68269;52.514;5.722;2023-03-20T15:30:19;9.20;69.20
78886;DHT22;68269;52.514;5.722;2023-03-20T15:32:52;9.20;69.30
78886;DHT22;68269;52.514;5.722;2023-03-20T15:35:26;9.20;69.40
78886;DHT22;68269;52.514;5.722;2023-03-20T15:37:57;9.20;69.40
78886;DHT22;68269;52.514;5.722;2023-03-20T15:40:33;9.20;69.50
78886;DHT22;68269;52.514;5.722;2023-03-20T15:43:12;9.20;69.50
78886;DHT22;68269;52.514;5.722;2023-03-20T15:45:43;9.20;69.50
78886;DHT22;68269;52.514;5.722;2023-03-20T15:48:13;9.20;69.60
78886;DHT22;68269;52.514;5.722;2023-03-20T15:50:51;9.20;69.60
78886;DHT22;68269;52.514;5.722;2023-03-20T15:53:26;9.20;69.70
78886;DHT22;68269;52.514;5.722;2023-03-20T15:56:00;9.20;69.70
78886;DHT22;68269;52.514;5.722;2023-03-20T15:58:31;9.30;69.60
78886;DHT22;68269;52.514;5.722;2023-03-20T16:01:03;9.30;69.70
78886;DHT22;68269;52.514;5.722;2023-03-20T16:03:34;9.30;69.70
78886;DHT22;68269;52.514;5.722;2023-03-20T16:06:11;9.30;69.80
78886;DHT22;68269;52.514;5.722;2023-03-20T16:08:43;9.40;69.80
78886;DHT22;68269;52.514;5.722;2023-03-20T16:11:13;9.30;69.80
78886;DHT22;68269;52.514;5.722;2023-03-20T16:13:46;9.30;69.80
78886;DHT22;68269;52.514;5.722;2023-03-20T16:16:18;9.30;69.90
78886;DHT22;68269;52.514;5.722;2023-03-20T16:18:49;9.30;69.90
78886;DHT22;68269;52.514;5.722;2023-03-20T16:21:24;9.30;69.90
78886;DHT22;68269;52.514;5.722;2023-03-20T16:23:56;9.30;70.00
78886;DHT22;68269;52.514;5.722;2023-03-20T16:26:27;9.30;70.00
78886;DHT22;68269;52.514;5.722;2023-03-20T16:28:58;9.30;70.00
78886;DHT22;68269;52.514;5.722;2023-03-20T16:31:29;9.30;70.00
78886;DHT22;68269;52.514;5.722;2023-03-20T16:34:00;9.30;70.10
78886;DHT22;68269;52.514;5.722;2023-03-20T16:36:34;9.30;70.00
78886;DHT22;68269;52.514;5.722;2023-03-20T16:39:07;9.30;70.10
78886;DHT22;68269;52.514;5.722;2023-03-20T16:41:38;9.30;70.10
78886;DHT22;68269;52.514;5.722;2023-03-20T16:44:12;9.30;70.20
78886;DHT22;68269;52.514;5.722;2023-03-20T16:46:58;9.20;70.10
78886;DHT22;68269;52.514;5.722;2023-03-20T16:49:47;9.20;70.10
78886;DHT22;68269;52.514;5.722;2023-03-20T16:52:25;9.20;70.20